Time;durP1;ratioP1;P1;durP2;ratioP2;P2;SDS_P1;SDS_P2;PMS_P1;PMS_P2;Temp;Humidity;BMP_temperature;BMP_pressure;BME280_temperature;BME280_humidity;BME280_pressure;Samples;Min_cycle;Max_cycle;Signal;HPM_P1;HPM_P2
2023/10/27 00:01:32;;;;;;;0.93;0.60;;;;;;;;;;5079453;28;20064;-80
2023/10/27 00:03:58;;;;;;;4.63;0.73;;;;;;;;;;5071024;28;20063;-80
2023/10/27 00:06:24;;;;;;;0.35;0.35;;;;;;;;;;5083374;28;20043;-79
2023/10/27 00:08:50;;;;;;;0.38;0.38;;;;;;;;;;5072278;28;20028;-80
2023/10/27 00:11:16;;;;;;;1.35;0.50;;;;;;;;;;5071208;28;20103;-79
2023/10/27 00:13:42;;;;;;;0.60;0.50;;;;;;;;;;5071188;28;20023;-80
2023/10/27 00:16:09;;;;;;;0.40;0.40;;;13.50;99.90;;;;;;5071387;28;20504;-79
2023/10/27 00:18:35;;;;;;;0.63;0.63;;;13.30;99.90;;;;;;5071570;28;20033;-79
2023/10/27 00:21:01;;;;;;;0.30;0.30;;;;;;;;;;5071219;28;20032;-79
2023/10/27 00:23:27;;;;;;;0.40;0.40;;;;;;;;;;5070698;28;20021;-79
2023/10/27 00:25:53;;;;;;;0.40;0.40;;;;;;;;;;5070569;28;20036;-79
2023/10/27 00:28:20;;;;;;;0.40;0.40;;;;;;;;;;5075694;28;20020;-80
2023/10/27 00:30:46;;;;;;;0.30;0.30;;;;;;;;;;5079073;28;20486;-79
2023/10/27 00:33:12;;;;;;;0.30;0.30;;;;;;;;;;5070640;28;20100;-80
2023/10/27 00:35:38;;;;;;;0.35;0.35;;;;;;;;;;5070590;28;20108;-79
2023/10/27 00:38:04;;;;;;;2.47;0.30;;;;;;;;;;5084468;28;20134;-79
2023/10/27 00:40:30;;;;;;;0.30;0.30;;;;;;;;;;5072216;28;20024;-80
2023/10/27 00:42:57;;;;;;;0.40;0.40;;;13.20;99.90;;;;;;5073095;28;20395;-80
2023/10/27 00:45:23;;;;;;;0.63;0.40;;;;;;;;;;5072243;28;20072;-80
2023/10/27 00:47:49;;;;;;;0.20;0.20;;;;;;;;;;5072735;28;20494;-79
2023/10/27 00:50:15;;;;;;;0.30;0.30;;;;;;;;;;5070717;28;20166;-80
2023/10/27 00:52:41;;;;;;;0.43;0.38;;;;;;;;;;5089714;28;20024;-80
2023/10/27 00:55:07;;;;;;;0.75;0.68;;;;;;;;;;5088948;28;20042;-80
2023/10/27 00:57:35;;;;;;;0.30;0.30;;;12.90;99.90;;;;;;5089586;28;20024;-80
2023/10/27 01:00:01;;;;;;;0.20;0.20;;;;;;;;;;5090194;28;20032;-80
2023/10/27 01:02:27;;;;;;;2.75;0.52;;;;;;;;;;5083503;28;20020;-79
2023/10/27 01:04:53;;;;;;;0.40;0.40;;;;;;;;;;5089217;28;20143;-80
2023/10/27 01:07:21;;;;;;;0.30;0.30;;;;;;;;;;5089789;28;20023;-80
2023/10/27 01:09:47;;;;;;;0.30;0.30;;;;;;;;;;5089103;28;20059;-80
2023/10/27 01:12:13;;;;;;;0.50;0.50;;;;;;;;;;5090156;28;20121;-80
2023/10/27 01:14:39;;;;;;;0.40;0.40;;;;;;;;;;5089199;28;20510;-80
2023/10/27 01:17:06;;;;;;;0.80;0.40;;;;;;;;;;5090210;28;20472;-80
2023/10/27 01:19:32;;;;;;;0.30;0.30;;;;;;;;;;5088724;28;20028;-80
2023/10/27 01:21:58;;;;;;;0.40;0.40;;;;;;;;;;5089872;28;20095;-80
2023/10/27 01:24:23;;;;;;;0.30;0.30;;;13.20;99.90;;;;;;5088649;28;20560;-80
2023/10/27 01:26:49;;;;;;;0.50;0.40;;;;;;;;;;5089010;28;20023;-80
2023/10/27 01:29:16;;;;;;;0.80;0.55;;;;;;;;;;5088803;28;20438;-80
2023/10/27 01:31:41;;;;;;;0.45;0.45;;;;;;;;;;5089776;28;20032;-80
2023/10/27 01:34:07;;;;;;;0.35;0.35;;;;;;;;;;5089315;28;20036;-80
2023/10/27 01:36:33;;;;;;;0.30;0.30;;;;;;;;;;5089469;28;20020;-80
2023/10/27 01:38:59;;;;;;;0.30;0.30;;;;;;;;;;5088815;28;20056;-80
2023/10/27 01:41:25;;;;;;;0.57;0.55;;;;;;;;;;5082755;28;20043;-80
2023/10/27 01:43:51;;;;;;;0.30;0.30;;;;;;;;;;5082892;28;20523;-80
2023/10/27 01:46:17;;;;;;;2.08;0.40;;;;;;;;;;5085874;28;20024;-80
2023/10/27 01:48:43;;;;;;;0.40;0.40;;;;;;;;;;5069200;28;20025;-80
2023/10/27 01:51:09;;;;;;;0.43;0.43;;;;;;;;;;5075443;28;20036;-80
2023/10/27 01:53:35;;;;;;;0.43;0.40;;;;;;;;;;5089333;28;20396;-80
2023/10/27 01:56:01;;;;;;;1.90;0.45;;;;;;;;;;5089124;28;20031;-80
2023/10/27 01:58:28;;;;;;;0.30;0.30;;;;;;;;;;5089051;28;20027;-80
2023/10/27 02:00:54;;;;;;;0.40;0.40;;;;;;;;;;5088930;28;20066;-80
2023/10/27 02:03:20;;;;;;;0.30;0.30;;;;;;;;;;5088620;28;20024;-80
2023/10/27 02:05:47;;;;;;;0.32;0.32;;;;;;;;;;5089595;28;20082;-80
2023/10/27 02:08:13;;;;;;;0.85;0.40;;;;;;;;;;5088906;28;20388;-80
2023/10/27 02:10:39;;;;;;;0.60;0.50;;;;;;;;;;5088574;28;20553;-80
2023/10/27 02:13:05;;;;;;;1.70;0.45;;;;;;;;;;5087286;28;20110;-80
2023/10/27 02:15:31;;;;;;;0.68;0.68;;;;;;;;;;5088764;28;20019;-80
2023/10/27 02:17:57;;;;;;;0.50;0.50;;;;;;;;;;5087654;28;20032;-79
2023/10/27 02:20:23;;;;;;;0.40;0.40;;;;;;;;;;5071795;28;20024;-79
2023/10/27 02:22:49;;;;;;;3.50;0.40;;;;;;;;;;5070234;28;20048;-80
2023/10/27 02:25:16;;;;;;;0.45;0.30;;;;;;;;;;5069438;28;20067;-80
2023/10/27 02:27:42;;;;;;;2.05;0.30;;;;;;;;;;5072920;28;20017;-80
2023/10/27 02:30:08;;;;;;;0.50;0.50;;;11.30;99.90;;;;;;5074712;28;20074;-79
2023/10/27 02:32:35;;;;;;;3.20;0.50;;;;;;;;;;5076908;28;20056;-80
2023/10/27 02:35:01;;;;;;;0.38;0.30;;;;;;;;;;5068718;28;20404;-80
2023/10/27 02:37:27;;;;;;;0.30;0.30;;;;;;;;;;5072998;28;20012;-80
2023/10/27 02:39:53;;;;;;;0.35;0.35;;;;;;;;;;5082996;28;20032;-80
2023/10/27 02:42:19;;;;;;;3.03;0.57;;;;;;;;;;5088142;28;20059;-80
2023/10/27 02:44:44;;;;;;;0.30;0.30;;;;;;;;;;5087950;28;20496;-80
2023/10/27 02:47:10;;;;;;;0.47;0.47;;;;;;;;;;5088457;28;20017;-80
2023/10/27 02:49:36;;;;;;;0.30;0.30;;;;;;;;;;5086059;28;20062;-80
2023/10/27 02:52:02;;;;;;;0.40;0.40;;;;;;;;;;5087465;28;20131;-80
2023/10/27 02:54:28;;;;;;;0.50;0.50;;;;;;;;;;5080776;28;20028;-80
2023/10/27 02:56:54;;;;;;;1.60;0.50;;;;;;;;;;5067012;28;20020;-80
2023/10/27 02:59:20;;;;;;;0.40;0.40;;;;;;;;;;5068443;28;20123;-80
2023/10/27 03:01:46;;;;;;;2.25;2.15;;;;;;;;;;5068556;28;20029;-80
2023/10/27 03:04:13;;;;;;;0.40;0.40;;;;;;;;;;5068548;28;20043;-80
2023/10/27 03:06:39;;;;;;;0.40;0.40;;;;;;;;;;5068641;28;20296;-80
2023/10/27 03:09:05;;;;;;;0.30;0.30;;;;;;;;;;5068297;28;20040;-80
2023/10/27 03:11:31;;;;;;;0.52;0.50;;;;;;;;;;5068074;28;20020;-80
2023/10/27 03:13:57;;;;;;;0.50;0.50;;;;;;;;;;5068444;28;20033;-80
2023/10/27 03:16:23;;;;;;;7.57;0.77;;;;;;;;;;5068698;28;20109;-80
2023/10/27 03:18:50;;;;;;;0.40;0.40;;;;;;;;;;5068350;28;20028;-80
2023/10/27 03:21:16;;;;;;;2.88;0.50;;;10.00;99.90;;;;;;5067997;28;20024;-80
2023/10/27 03:23:42;;;;;;;1.20;0.93;;;;;;;;;;5068369;28;20045;-80
2023/10/27 03:26:09;;;;;;;0.80;0.52;;;;;;;;;;5067828;28;20397;-80
2023/10/27 03:28:34;;;;;;;2.38;0.50;;;;;;;;;;5069280;28;20580;-80
2023/10/27 03:31:01;;;;;;;0.40;0.40;;;;;;;;;;5066834;28;20111;-80
2023/10/27 03:33:27;;;;;;;0.32;0.32;;;;;;;;;;5068365;28;20120;-80
2023/10/27 03:35:53;;;;;;;0.45;0.45;;;;;;;;;;5068085;28;20104;-80
2023/10/27 03:38:18;;;;;;;1.52;0.50;;;;;;;;;;5076605;28;20535;-80
2023/10/27 03:40:45;;;;;;;1.10;0.70;;;;;;;;;;5074291;28;20104;-80
2023/10/27 03:43:11;;;;;;;1.10;0.75;;;;;;;;;;5087747;28;20417;-80
2023/10/27 03:45:37;;;;;;;0.82;0.70;;;;;;;;;;5086716;28;20045;-80
2023/10/27 03:48:04;;;;;;;0.52;0.52;;;;;;;;;;5087097;28;20116;-80
2023/10/27 03:50:30;;;;;;;0.88;0.88;;;;;;;;;;5084940;28;20028;-80
2023/10/27 03:52:56;;;;;;;0.95;0.55;;;10.10;99.90;;;;;;5087137;28;20028;-80
2023/10/27 03:55:22;;;;;;;1.38;0.50;;;;;;;;;;5082091;28;20028;-80
2023/10/27 03:57:48;;;;;;;1.10;0.50;;;;;;;;;;5087324;28;20117;-80
2023/10/27 04:00:15;;;;;;;1.63;0.90;;;10.10;99.90;;;;;;5086627;28;20032;-80
2023/10/27 04:02:41;;;;;;;0.50;0.50;;;;;;;;;;5088194;28;20032;-80
2023/10/27 04:05:07;;;;;;;0.82;0.63;;;9.80;99.90;;;;;;5089928;28;20032;-80
2023/10/27 04:07:33;;;;;;;0.93;0.80;;;;;;;;;;5091479;28;20333;-80
2023/10/27 04:09:59;;;;;;;0.50;0.50;;;;;;;;;;5090065;28;20028;-80
2023/10/27 04:12:25;;;;;;;0.50;0.50;;;;;;;;;;5090691;28;20389;-80
2023/10/27 04:14:51;;;;;;;0.77;0.60;;;;;;;;;;5090521;28;20694;-80
2023/10/27 04:17:17;;;;;;;0.57;0.50;;;;;;;;;;5091483;28;20374;-80
2023/10/27 04:19:43;;;;;;;0.55;0.55;;;;;;;;;;5090678;28;20021;-79
2023/10/27 04:22:09;;;;;;;0.82;0.70;;;;;;;;;;5091014;28;20024;-80
2023/10/27 04:24:35;;;;;;;3.03;0.65;;;;;;;;;;5087448;28;20040;-80
2023/10/27 04:27:01;;;;;;;0.50;0.50;;;;;;;;;;5080589;28;20024;-80
2023/10/27 04:29:27;;;;;;;0.75;0.75;;;;;;;;;;5075793;28;20052;-80
2023/10/27 04:31:53;;;;;;;1.88;0.80;;;;;;;;;;5071435;28;20048;-80
2023/10/27 04:34:20;;;;;;;0.73;0.68;;;;;;;;;;5071045;28;20029;-80
2023/10/27 04:36:46;;;;;;;1.00;0.60;;;;;;;;;;5071035;28;20507;-80
2023/10/27 04:39:11;;;;;;;2.67;0.68;;;;;;;;;;5069575;28;20024;-80
2023/10/27 04:41:38;;;;;;;1.65;0.82;;;;;;;;;;5071153;28;20025;-80
2023/10/27 04:44:04;;;;;;;0.90;0.80;;;;;;;;;;5071018;28;20052;-80
2023/10/27 04:46:30;;;;;;;3.55;0.80;;;;;;;;;;5071061;28;20016;-80
2023/10/27 04:48:58;;;;;;;0.60;0.60;;;10.60;99.90;;;;;;5070702;28;20046;-80
2023/10/27 04:51:26;;;;;;;0.77;0.60;;;;;;;;;;5070863;28;20097;-81
2023/10/27 04:53:52;;;;;;;0.60;0.60;;;;;;;;;;5071065;28;20370;-80
2023/10/27 04:56:18;;;;;;;0.95;0.70;;;;;;;;;;5070289;28;20497;-80
2023/10/27 04:58:44;;;;;;;0.50;0.50;;;;;;;;;;5073730;28;20412;-80
2023/10/27 05:01:11;;;;;;;0.60;0.60;;;;;;;;;;5090562;28;20369;-80
2023/10/27 05:03:37;;;;;;;0.50;0.50;;;;;;;;;;5089527;28;20049;-80
2023/10/27 05:06:09;;;;;;;9.77;2.85;;;11.50;99.90;;;;;;5090023;28;20754;-80
2023/10/27 05:08:35;;;;;;;3.88;2.20;;;;;;;;;;5089196;28;20024;-80
2023/10/27 05:11:01;;;;;;;2.55;1.05;;;;;;;;;;5090044;28;20028;-81
2023/10/27 05:13:27;;;;;;;2.35;1.20;;;;;;;;;;5076811;28;20384;-80
2023/10/27 05:15:54;;;;;;;2.53;1.10;;;11.00;99.90;;;;;;5089304;28;20032;-80
2023/10/27 05:18:20;;;;;;;3.60;1.17;;;;;;;;;;5088260;28;20051;-80
2023/10/27 05:20:46;;;;;;;1.38;0.90;;;;;;;;;;5089337;28;20028;-80
2023/10/27 05:23:12;;;;;;;1.80;1.15;;;;;;;;;;5087953;28;20104;-80
2023/10/27 05:25:38;;;;;;;1.42;1.13;;;;;;;;;;5089314;28;20479;-80
2023/10/27 05:28:04;;;;;;;2.05;1.10;;;;;;;;;;5084979;28;20016;-80
2023/10/27 05:30:30;;;;;;;1.58;1.08;;;;;;;;;;5080029;28;20058;-80
2023/10/27 05:32:56;;;;;;;2.70;1.88;;;;;;;;;;5088093;28;20101;-80
2023/10/27 05:35:22;;;;;;;6.13;0.90;;;;;;;;;;5089858;28;20495;-80
2023/10/27 05:37:48;;;;;;;0.98;0.63;;;;;;;;;;5089200;28;20551;-80
2023/10/27 05:40:14;;;;;;;4.10;0.77;;;;;;;;;;5090026;28;20388;-80
2023/10/27 05:42:40;;;;;;;0.65;0.60;;;;;;;;;;5085602;28;20052;-80
2023/10/27 05:45:07;;;;;;;1.20;1.02;;;11.10;99.90;;;;;;5069536;28;20040;-80
2023/10/27 05:47:33;;;;;;;1.25;0.93;;;;;;;;;;5073048;28;20020;-81
2023/10/27 05:49:59;;;;;;;0.80;0.80;;;;;;;;;;5075756;28;20047;-80
2023/10/27 05:52:25;;;;;;;4.93;0.98;;;;;;;;;;5069294;28;20107;-80
2023/10/27 05:54:51;;;;;;;1.42;1.00;;;;;;;;;;5069749;28;20025;-80
2023/10/27 05:57:17;;;;;;;2.17;1.50;;;;;;;;;;5083180;28;20020;-80
2023/10/27 05:59:43;;;;;;;2.53;1.67;;;;;;;;;;5081736;28;20512;-80
2023/10/27 06:02:09;;;;;;;3.30;1.98;;;;;;;;;;5075837;28;20024;-81
2023/10/27 06:04:36;;;;;;;1.48;1.10;;;;;;;;;;5081413;28;20113;-80
2023/10/27 06:07:02;;;;;;;1.55;1.20;;;;;;;;;;5081756;28;20350;-80
2023/10/27 06:09:29;;;;;;;1.83;1.55;;;;;;;;;;5081168;28;20036;-82
2023/10/27 06:11:55;;;;;;;1.95;1.42;;;;;;;;;;5086370;28;20024;-84
2023/10/27 06:14:21;;;;;;;6.85;2.08;;;;;;;;;;5068538;28;20028;-81
2023/10/27 06:16:47;;;;;;;2.60;1.40;;;;;;;;;;5073076;28;20028;-83
2023/10/27 06:19:13;;;;;;;1.70;1.00;;;;;;;;;;5069324;28;20089;-88
2023/10/27 06:21:39;;;;;;;1.63;1.30;;;;;;;;;;5074261;28;20430;-88
2023/10/27 06:24:07;;;;;;;2.17;1.40;;;10.90;99.90;;;;;;5071994;28;20029;-88
2023/10/27 06:26:34;;;;;;;2.38;1.33;;;;;;;;;;5077996;28;20059;-88
2023/10/27 06:29:00;;;;;;;4.65;0.95;;;;;;;;;;5078677;28;20081;-88
2023/10/27 06:31:26;;;;;;;2.15;1.48;;;;;;;;;;5070111;28;20054;-88
2023/10/27 06:33:52;;;;;;;2.92;1.70;;;;;;;;;;5081677;28;20028;-87
2023/10/27 06:36:18;;;;;;;2.63;1.60;;;;;;;;;;5085974;28;20027;-88
2023/10/27 06:38:44;;;;;;;6.90;2.10;;;;;;;;;;5073987;28;20028;-89
2023/10/27 06:41:10;;;;;;;4.13;1.55;;;;;;;;;;5075089;28;20218;-89
2023/10/27 06:43:36;;;;;;;4.18;2.30;;;;;;;;;;5082186;28;20044;-90
2023/10/27 06:46:03;;;;;;;2.22;1.63;;;;;;;;;;5084384;28;20048;-88
2023/10/27 06:48:29;;;;;;;1.58;1.40;;;;;;;;;;5080883;28;20507;-89
2023/10/27 06:50:55;;;;;;;3.58;1.73;;;;;;;;;;5082688;28;20020;-90
2023/10/27 06:53:21;;;;;;;1.92;1.40;;;;;;;;;;5067718;28;20039;-88
2023/10/27 06:55:47;;;;;;;3.75;1.60;;;;;;;;;;5060752;28;20020;-87
2023/10/27 06:58:14;;;;;;;1.67;1.48;;;;;;;;;;5066567;28;20066;-85
2023/10/27 07:00:40;;;;;;;2.05;1.08;;;;;;;;;;5063987;28;20393;-91
2023/10/27 07:03:06;;;;;;;1.08;0.98;;;;;;;;;;5071699;28;20025;-88
2023/10/27 07:05:32;;;;;;;1.27;1.10;;;;;;;;;;5064366;28;20162;-89
2023/10/27 07:07:58;;;;;;;1.88;1.27;;;;;;;;;;5063879;28;20107;-88
2023/10/27 07:10:24;;;;;;;2.53;1.40;;;;;;;;;;5073020;28;20032;-90
2023/10/27 07:12:50;;;;;;;3.55;2.00;;;;;;;;;;5067154;28;20099;-89
2023/10/27 07:15:16;;;;;;;5.10;3.00;;;;;;;;;;5072840;28;20568;-90
2023/10/27 07:17:42;;;;;;;4.80;2.03;;;;;;;;;;5071135;28;20523;-89
2023/10/27 07:20:09;;;;;;;2.67;1.33;;;;;;;;;;5075543;28;20072;-90
2023/10/27 07:22:36;;;;;;;3.88;1.65;;;12.10;99.90;;;;;;5069656;28;20074;-94
2023/10/27 07:25:03;;;;;;;6.35;2.55;;;12.00;99.90;;;;;;5075001;28;20041;-93
2023/10/27 07:27:29;;;;;;;2.75;1.65;;;12.70;99.90;;;;;;5067402;28;20385;-92
2023/10/27 07:29:55;;;;;;;4.18;2.28;;;;;;;;;;5067751;28;20108;-93
2023/10/27 07:32:21;;;;;;;4.97;3.03;;;;;;;;;;5069477;28;20025;-92
2023/10/27 07:34:51;;;;;;;3.88;2.55;;;;;;;;;;5070228;28;20025;-93
2023/10/27 07:37:21;;;;;;;3.15;2.10;;;;;;;;;;5075514;28;20025;-95
2023/10/27 07:39:47;;;;;;;2.10;1.38;;;27.70;63.70;;;;;;5068003;28;20031;-93
2023/10/27 07:42:13;;;;;;;1.10;1.00;;;;;;;;;;5084263;28;20044;-93
2023/10/27 07:44:39;;;;;;;1.20;1.20;;;27.20;66.40;;;;;;5093030;28;20043;-93
2023/10/27 07:47:06;;;;;;;1.38;1.23;;;;;;;;;;5074845;28;20516;-94
2023/10/27 07:49:32;;;;;;;1.00;0.60;;;;;;;;;;5076781;28;20526;-94
2023/10/27 07:51:58;;;;;;;1.30;1.10;;;;;;;;;;5073453;28;20111;-93
2023/10/27 07:54:24;;;;;;;3.23;1.37;;;31.10;62.00;;;;;;5080666;28;20039;-96
2023/10/27 07:56:49;;;;;;;2.75;2.35;;;34.20;56.80;;;;;;5079067;28;20013;-94
2023/10/27 07:59:15;;;;;;;2.53;1.85;;;33.60;53.30;;;;;;5077592;28;20032;-93
2023/10/27 08:01:41;;;;;;;3.22;2.13;;;;;;;;;;5076513;28;20020;-93
2023/10/27 08:04:07;;;;;;;3.35;1.38;;;;;;;;;;5080348;28;20064;-92
2023/10/27 08:06:33;;;;;;;2.40;1.20;;;22.70;66.20;;;;;;5073435;28;20492;-93
2023/10/27 08:08:59;;;;;;;7.78;1.73;;;;;;;;;;5073866;28;20096;-93
2023/10/27 08:11:25;;;;;;;4.57;2.55;;;;;;;;;;5073245;28;20358;-92
2023/10/27 08:13:51;;;;;;;3.65;1.30;;;;;;;;;;5073444;28;20024;-93
2023/10/27 08:16:17;;;;;;;4.43;3.17;;;22.10;78.00;;;;;;5083717;28;20028;-94
2023/10/27 08:18:45;;;;;;;1.77;1.67;;;;;;;;;;5082980;28;20027;-93
2023/10/27 08:21:11;;;;;;;3.45;1.80;;;;;;;;;;5091899;28;20111;-93
2023/10/27 08:23:37;;;;;;;3.72;1.67;;;38.30;49.30;;;;;;5076645;28;20024;-94
2023/10/27 08:26:03;;;;;;;2.45;0.68;;;42.40;44.70;;;;;;5086180;28;20027;-94
2023/10/27 08:28:28;;;;;;;1.23;0.53;;;43.30;39.00;;;;;;5078493;28;20442;-96
2023/10/27 08:30:56;;;;;;;2.37;0.60;;;43.60;32.00;;;;;;5086647;28;20115;-96
2023/10/27 08:33:22;;;;;;;0.85;0.68;;;47.60;38.20;;;;;;5078992;28;20051;-93
2023/10/27 08:35:47;;;;;;;0.57;0.57;;;47.30;31.00;;;;;;5084784;28;20051;-96
2023/10/27 08:38:13;;;;;;;0.43;0.40;;;47.10;33.90;;;;;;5092564;28;20055;-94
2023/10/27 08:40:39;;;;;;;0.23;0.20;;;46.90;31.20;;;;;;5093670;28;20028;-94
2023/10/27 08:43:04;;;;;;;0.90;0.35;;;46.50;26.80;;;;;;5077817;28;20287;-95
2023/10/27 08:45:32;;;;;;;0.63;0.30;;;45.80;26.40;;;;;;5076854;28;20036;-95
2023/10/27 08:48:03;;;;;;;0.30;0.30;;;45.90;25.00;;;;;;5088774;28;20028;-94
2023/10/27 08:50:32;;;;;;;0.85;0.28;;;46.60;26.20;;;;;;5088827;28;20028;-94
2023/10/27 08:52:59;;;;;;;0.38;0.28;;;47.30;25.80;;;;;;5086069;28;20132;-94
2023/10/27 08:55:25;;;;;;;0.60;0.20;;;47.80;25.50;;;;;;5078193;28;20054;-94
2023/10/27 08:57:54;;;;;;;0.30;0.30;;;48.30;24.70;;;;;;5079654;28;20486;-94
2023/10/27 09:00:19;;;;;;;0.20;0.20;;;49.80;23.60;;;;;;5093595;28;20043;-95
2023/10/27 09:02:45;;;;;;;;;;;49.80;24.20;;;;;;5087737;28;20020;-95
2023/10/27 09:05:11;;;;;;;0.20;0.13;;;49.00;21.60;;;;;;5094988;28;19916;-94
2023/10/27 09:07:37;;;;;;;1.25;0.22;;;46.50;32.50;;;;;;5092349;28;20019;-95
2023/10/27 09:10:04;;;;;;;;;;;46.50;24.10;;;;;;5081885;28;20048;-95
2023/10/27 09:12:31;;;;;;;1.17;0.20;;;48.50;31.70;;;;;;5077383;28;19975;-92
2023/10/27 09:15:04;;;;;;;1.00;0.10;;;43.80;30.60;;;;;;5082308;28;20090;-96
2023/10/27 09:17:30;;;;;;;0.73;0.45;;;42.50;22.80;;;;;;5075536;28;20048;-94
2023/10/27 09:20:06;;;;;;;0.35;0.03;;;31.90;42.30;;;;;;5077896;28;20067;-92
2023/10/27 09:22:32;;;;;;;1.25;0.22;;;32.00;43.30;;;;;;5071778;28;20025;-95
2023/10/27 09:25:15;;;;;;;0.20;0.10;;;29.70;44.10;;;;;;5087302;28;20032;-96
2023/10/27 09:27:45;;;;;;;2.10;0.20;;;28.10;31.00;;;;;;5072822;28;20480;-96
2023/10/27 09:30:12;;;;;;;1.05;0.60;;;31.90;38.30;;;;;;5095031;28;20049;-95
2023/10/27 09:32:40;;;;;;;0.60;0.40;;;;;;;;;;5068859;28;20020;-95
2023/10/27 09:35:13;;;;;;;1.45;0.20;;;35.60;38.00;;;;;;5081797;28;20033;-96
2023/10/27 09:37:42;;;;;;;1.65;0.45;;;35.90;40.30;;;;;;5095724;28;20039;-95
2023/10/27 09:40:11;;;;;;;0.32;0.22;;;38.40;37.10;;;;;;5084920;28;20037;-96
2023/10/27 09:42:37;;;;;;;2.08;0.20;;;41.40;34.90;;;;;;5087641;28;20047;-92
2023/10/27 09:45:09;;;;;;;0.50;0.30;;;42.50;24.10;;;;;;5092006;28;20031;-96
2023/10/27 09:47:46;;;;;;;1.25;0.20;;;45.80;31.90;;;;;;5084205;28;20100;-96
2023/10/27 09:50:21;;;;;;;0.30;0.10;;;47.60;31.00;;;;;;5083548;28;20020;-95
2023/10/27 09:52:49;;;;;;;0.55;0.55;;;47.50;23.40;;;;;;5080599;28;20013;-95
2023/10/27 09:55:17;;;;;;;0.65;0.20;;;47.20;29.80;;;;;;5089565;28;20500;-96
2023/10/27 09:57:46;;;;;;;2.20;0.25;;;47.30;22.30;;;;;;5107257;28;20536;-96
2023/10/27 10:00:25;;;;;;;1.75;0.10;;;47.40;21.40;;;;;;5101579;28;20036;-95
2023/10/27 10:02:51;;;;;;;0.40;0.10;;;47.30;29.60;;;;;;5085505;28;20025;-96
2023/10/27 10:05:17;;;;;;;1.48;0.10;;;47.70;21.50;;;;;;5096666;28;20043;-94
2023/10/27 10:07:44;;;;;;;0.45;0.20;;;47.20;22.00;;;;;;5095267;28;20493;-96
2023/10/27 10:10:18;;;;;;;0.50;0.13;;;47.80;21.20;;;;;;5092940;28;20512;-95
2023/10/27 10:13:08;;;;;;;0.10;0.10;;;47.30;21.90;;;;;;5089045;28;20021;-96
2023/10/27 10:15:34;;;;;;;1.55;1.38;;;44.90;21.20;;;;;;5072456;28;20024;-95
2023/10/27 10:18:06;;;;;;;2.28;0.20;;;40.40;31.50;;;;;;5089699;28;20088;-96
2023/10/27 10:20:52;;;;;;;0.32;0.10;;;40.50;33.00;;;;;;5094630;28;20046;-96
2023/10/27 10:23:18;;;;;;;0.80;0.28;;;42.90;31.40;;;;;;5096204;28;20028;-94
2023/10/27 10:25:55;;;;;;;0.30;0.20;;;42.80;22.90;;;;;;5107539;28;20079;-96
2023/10/27 10:28:25;;;;;;;1.17;0.20;;;44.00;22.50;;;;;;5087270;28;20103;-94
2023/10/27 10:31:16;;;;;;;0.63;0.38;;;43.90;22.10;;;;;;5088768;28;20087;-95
2023/10/27 10:33:46;;;;;;;1.70;0.30;;;43.80;30.50;;;;;;5083804;28;20047;-94
2023/10/27 10:36:14;;;;;;;0.38;0.10;;;41.50;30.70;;;;;;5084515;28;20374;-96
2023/10/27 10:39:00;;;;;;;1.10;0.20;;;41.60;22.20;;;;;;5099391;28;20035;-95
2023/10/27 10:41:41;;;;;;;0.28;0.10;;;32.60;38.30;;;;;;5090279;28;20024;-95
2023/10/27 10:44:14;;;;;;;0.30;0.20;;;32.40;27.40;;;;;;5091443;28;20028;-96
2023/10/27 10:46:41;;;;;;;4.47;0.30;;;33.30;25.70;;;;;;5089505;28;20017;-96
2023/10/27 10:49:07;;;;;;;1.95;0.40;;;;;;;;;;5092052;28;20020;-93
2023/10/27 10:51:37;;;;;;;0.20;0.10;;;30.30;40.70;;;;;;5104189;28;20024;-96
2023/10/27 10:54:03;;;;;;;0.85;0.10;;;27.80;29.10;;;;;;5086097;28;20266;-95
2023/10/27 10:56:29;;;;;;;0.88;0.57;;;25.20;33.40;;;;;;5090108;28;20032;-94
2023/10/27 10:58:56;;;;;;;1.42;0.22;;;;;;;;;;5087461;28;20028;-94
2023/10/27 11:01:23;;;;;;;1.20;0.30;;;22.50;51.70;;;;;;5093081;28;20029;-95
2023/10/27 11:03:53;;;;;;;1.17;0.50;;;21.50;49.20;;;;;;5083287;28;20028;-95
2023/10/27 11:06:27;;;;;;;3.42;0.80;;;22.90;54.00;;;;;;5087702;28;20041;-94
2023/10/27 11:08:53;;;;;;;1.20;0.50;;;;;;;;;;5085342;28;20123;-95
2023/10/27 11:11:19;;;;;;;1.08;0.30;;;23.40;42.00;;;;;;5084405;28;20071;-95
2023/10/27 11:13:46;;;;;;;0.68;0.35;;;22.90;40.60;;;;;;5086004;28;20024;-95
2023/10/27 11:16:22;;;;;;;0.45;0.40;;;22.70;37.60;;;;;;5085997;28;20084;-95
2023/10/27 11:19:02;;;;;;;4.50;0.50;;;22.30;54.30;;;;;;5087790;28;20029;-95
2023/10/27 11:21:30;;;;;;;0.40;0.40;;;21.80;55.80;;;;;;5087132;28;20017;-96
2023/10/27 11:23:56;;;;;;;0.38;0.30;;;21.90;48.60;;;;;;5090432;28;20036;-94
2023/10/27 11:26:26;;;;;;;0.30;0.30;;;21.40;57.00;;;;;;5087659;28;20076;-96
2023/10/27 11:28:55;;;;;;;1.15;0.77;;;;;;;;;;5088317;28;20036;-96
2023/10/27 11:31:30;;;;;;;5.28;0.95;;;22.10;56.10;;;;;;5097851;28;20023;-94
2023/10/27 11:34:05;;;;;;;1.55;0.65;;;23.50;54.40;;;;;;5079908;28;20029;-96
2023/10/27 11:36:43;;;;;;;1.85;0.30;;;23.80;52.80;;;;;;5083250;28;20028;-96
2023/10/27 11:39:16;;;;;;;;;;;23.90;38.30;;;;;;5080483;28;20028;-94
2023/10/27 11:41:50;;;;;;;2.17;0.40;;;22.60;54.10;;;;;;5090728;28;19956;-93
2023/10/27 11:44:16;;;;;;;1.55;0.30;;;;;;;;;;5091218;28;20497;-95
2023/10/27 11:46:53;;;;;;;1.75;0.80;;;21.50;55.90;;;;;;5097601;28;20103;-95
2023/10/27 11:49:19;;;;;;;2.88;0.30;;;;;;;;;;5080679;28;20035;-95
2023/10/27 11:51:47;;;;;;;3.33;0.65;;;21.10;40.50;;;;;;5079033;28;20090;-95
2023/10/27 11:54:15;;;;;;;2.03;0.82;;;;;;;;;;5086319;28;20037;-95
2023/10/27 11:56:41;;;;;;;1.55;0.65;;;;;;;;;;5079247;28;20040;-94
2023/10/27 11:59:09;;;;;;;1.30;0.52;;;;;;;;;;5076919;28;20098;-94
2023/10/27 12:01:36;;;;;;;0.82;0.35;;;19.60;42.70;;;;;;5086222;28;20032;-95
2023/10/27 12:04:02;;;;;;;0.55;0.50;;;;;;;;;;5091533;28;20025;-95
2023/10/27 12:06:27;;;;;;;3.70;0.50;;;19.70;61.30;;;;;;5090603;28;20024;-94
2023/10/27 12:08:53;;;;;;;1.77;0.45;;;18.70;61.70;;;;;;5079013;28;20028;-93
2023/10/27 12:11:20;;;;;;;0.43;0.40;;;;;;;;;;5084398;28;20012;-94
2023/10/27 12:13:46;;;;;;;2.35;0.82;;;18.40;50.50;;;;;;5095433;28;20034;-94
2023/10/27 12:16:13;;;;;;;0.45;0.45;;;;;;;;;;5087769;28;20020;-92
2023/10/27 12:18:39;;;;;;;0.50;0.40;;;;;;;;;;5061781;28;20489;-93
2023/10/27 12:21:05;;;;;;;7.80;0.70;;;;;;;;;;5077988;28;20259;-95
2023/10/27 12:23:32;;;;;;;1.45;0.55;;;;;;;;;;5085046;28;20031;-94
2023/10/27 12:25:59;;;;;;;;;;;18.20;49.00;;;;;;5082974;28;20032;-94
2023/10/27 12:28:27;;;;;;;0.85;0.60;;;;;;;;;;5080626;28;19904;-94
2023/10/27 12:30:53;;;;;;;1.27;0.77;;;;;;;;;;5074381;28;20036;-93
2023/10/27 12:33:19;;;;;;;7.35;0.98;;;19.70;49.70;;;;;;5083869;28;20027;-94
2023/10/27 12:35:48;;;;;;;0.70;0.70;;;;;;;;;;5085041;28;20017;-96
2023/10/27 12:38:15;;;;;;;2.15;0.52;;;;;;;;;;5091503;28;20032;-96
2023/10/27 12:40:41;;;;;;;0.60;0.60;;;;;;;;;;5091355;28;20013;-94
2023/10/27 12:43:08;;;;;;;0.63;0.30;;;19.40;55.30;;;;;;5086981;28;20098;-96
2023/10/27 12:45:34;;;;;;;0.50;0.50;;;18.90;45.60;;;;;;5091351;28;20055;-93
2023/10/27 12:48:01;;;;;;;0.82;0.60;;;;;;;;;;5086067;28;20115;-94
2023/10/27 12:50:28;;;;;;;1.63;0.40;;;18.00;47.10;;;;;;5091266;28;20032;-94
2023/10/27 12:52:54;;;;;;;;;;;18.20;47.80;;;;;;5087467;28;20063;-93
2023/10/27 12:55:20;;;;;;;0.88;0.70;;;;;;;;;;5074901;28;19990;-95
2023/10/27 12:57:45;;;;;;;0.90;0.52;;;18.00;63.80;;;;;;5072964;28;20047;-95
2023/10/27 13:00:16;;;;;;;1.35;0.50;;;18.10;47.70;;;;;;5076535;28;20038;-94
2023/10/27 13:02:43;;;;;;;4.50;0.70;;;;;;;;;;5083677;28;20107;-95
2023/10/27 13:05:09;;;;;;;3.70;0.63;;;;;;;;;;5087277;28;20040;-95
2023/10/27 13:07:35;;;;;;;0.60;0.60;;;;;;;;;;5076965;28;20020;-95
2023/10/27 13:10:02;;;;;;;0.50;0.50;;;;;;;;;;5092897;28;20091;-95
2023/10/27 13:12:28;;;;;;;0.80;0.57;;;;;;;;;;5091688;28;20012;-92
2023/10/27 13:14:56;;;;;;;0.77;0.63;;;;;;;;;;5087035;28;20509;-95
2023/10/27 13:17:23;;;;;;;0.40;0.40;;;;;;;;;;5075456;28;20009;-95
2023/10/27 13:19:49;;;;;;;3.00;0.70;;;;;;;;;;5075161;28;20126;-93
2023/10/27 13:22:15;;;;;;;0.50;0.50;;;;;;;;;;5086034;28;20013;-94
2023/10/27 13:24:41;;;;;;;1.50;1.10;;;;;;;;;;5082637;28;20090;-95
2023/10/27 13:27:08;;;;;;;3.08;0.93;;;16.90;52.90;;;;;;5089107;28;20020;-95
2023/10/27 13:29:34;;;;;;;1.85;0.63;;;;;;;;;;5078150;28;20089;-94
2023/10/27 13:32:00;;;;;;;1.02;0.70;;;;;;;;;;5089351;28;20021;-95
2023/10/27 13:34:26;;;;;;;2.70;0.60;;;16.60;72.80;;;;;;5093324;28;20039;-94
2023/10/27 13:36:52;;;;;;;0.90;0.70;;;;;;;;;;5074478;28;20272;-94
2023/10/27 13:39:19;;;;;;;0.85;0.80;;;;;;;;;;5073599;28;20028;-93
2023/10/27 13:41:45;;;;;;;1.00;0.73;;;;;;;;;;5072594;28;20016;-94
2023/10/27 13:44:10;;;;;;;0.43;0.43;;;17.00;61.50;;;;;;5071612;28;20033;-94
2023/10/27 13:46:39;;;;;;;3.17;0.75;;;;;;;;;;5072328;28;20025;-93
2023/10/27 13:49:10;;;;;;;0.52;0.50;;;17.00;71.30;;;;;;5073156;28;20048;-94
2023/10/27 13:51:36;;;;;;;1.73;0.70;;;;;;;;;;5071916;28;20500;-93
2023/10/27 13:54:02;;;;;;;0.50;0.50;;;;;;;;;;5073941;28;20540;-94
2023/10/27 13:56:28;;;;;;;3.38;0.88;;;;;;;;;;5075335;28;20183;-95
2023/10/27 13:58:54;;;;;;;0.82;0.82;;;;;;;;;;5073241;28;20024;-94
2023/10/27 14:01:21;;;;;;;0.40;0.40;;;;;;;;;;5072924;28;20062;-95